sensor_id;sensor_type;location;lat;lon;timestamp;P1;P2;P0
68116;PMS7003;54909;54.464;18.498;2023-12-28T00:00:57;14;12;7
68116;PMS7003;54909;54.464;18.498;2023-12-28T00:03:58;15;11;9
68116;PMS7003;54909;54.464;18.498;2023-12-28T00:06:59;13;9;7
68116;PMS7003;54909;54.464;18.498;2023-12-28T00:10:08;12;11;8
68116;PMS7003;54909;54.464;18.498;2023-12-28T00:13:09;14;10;8
68116;PMS7003;54909;54.464;18.498;2023-12-28T00:16:10;19;15;9
68116;PMS7003;54909;54.464;18.498;2023-12-28T00:19:19;19;15;8
68116;PMS7003;54909;54.464;18.498;2023-12-28T00:22:21;19;15;8
68116;PMS7003;54909;54.464;18.498;2023-12-28T00:25:22;20;14;9
68116;PMS7003;54909;54.464;18.498;2023-12-28T00:28:29;15;12;8
68116;PMS7003;54909;54.464;18.498;2023-12-28T00:31:30;14;12;9
68116;PMS7003;54909;54.464;18.498;2023-12-28T00:34:31;14;13;9
68116;PMS7003;54909;54.464;18.498;2023-12-28T00:37:39;14;13;9
68116;PMS7003;54909;54.464;18.498;2023-12-28T00:40:40;15;14;10
68116;PMS7003;54909;54.464;18.498;2023-12-28T00:43:41;11;11;8
68116;PMS7003;54909;54.464;18.498;2023-12-28T00:46:50;14;13;9
68116;PMS7003;54909;54.464;18.498;2023-12-28T00:49:51;14;13;9
68116;PMS7003;54909;54.464;18.498;2023-12-28T00:52:52;18;13;9
68116;PMS7003;54909;54.464;18.498;2023-12-28T00:56:00;15;13;10
68116;PMS7003;54909;54.464;18.498;2023-12-28T00:59:01;16;13;9
68116;PMS7003;54909;54.464;18.498;2023-12-28T01:02:03;15;13;9
68116;PMS7003;54909;54.464;18.498;2023-12-28T01:05:10;19;12;9
68116;PMS7003;54909;54.464;18.498;2023-12-28T01:08:11;21;17;8
68116;PMS7003;54909;54.464;18.498;2023-12-28T01:11:12;18;12;9
68116;PMS7003;54909;54.464;18.498;2023-12-28T01:14:22;14;13;9
68116;PMS7003;54909;54.464;18.498;2023-12-28T01:17:23;19;15;11
68116;PMS7003;54909;54.464;18.498;2023-12-28T01:20:24;20;15;9
68116;PMS7003;54909;54.464;18.498;2023-12-28T01:23:33;25;19;13
68116;PMS7003;54909;54.464;18.498;2023-12-28T01:26:34;20;17;12
68116;PMS7003;54909;54.464;18.498;2023-12-28T01:29:35;26;24;13
68116;PMS7003;54909;54.464;18.498;2023-12-28T01:32:43;23;19;13
68116;PMS7003;54909;54.464;18.498;2023-12-28T01:35:44;28;22;14
68116;PMS7003;54909;54.464;18.498;2023-12-28T01:38:45;25;23;14
68116;PMS7003;54909;54.464;18.498;2023-12-28T01:41:55;27;20;14
68116;PMS7003;54909;54.464;18.498;2023-12-28T01:44:57;24;20;14
68116;PMS7003;54909;54.464;18.498;2023-12-28T01:47:58;25;21;13
68116;PMS7003;54909;54.464;18.498;2023-12-28T01:51:07;30;20;14
68116;PMS7003;54909;54.464;18.498;2023-12-28T01:54:08;26;21;15
68116;PMS7003;54909;54.464;18.498;2023-12-28T01:57:10;31;25;14
68116;PMS7003;54909;54.464;18.498;2023-12-28T02:00:20;22;19;15
68116;PMS7003;54909;54.464;18.498;2023-12-28T02:03:22;26;25;16
68116;PMS7003;54909;54.464;18.498;2023-12-28T02:06:23;27;26;17
68116;PMS7003;54909;54.464;18.498;2023-12-28T02:09:31;26;22;14
68116;PMS7003;54909;54.464;18.498;2023-12-28T02:12:33;30;23;15
68116;PMS7003;54909;54.464;18.498;2023-12-28T02:15:34;31;29;15
68116;PMS7003;54909;54.464;18.498;2023-12-28T02:18:44;30;23;17
68116;PMS7003;54909;54.464;18.498;2023-12-28T02:21:50;32;23;17
68116;PMS7003;54909;54.464;18.498;2023-12-28T02:24:58;28;22;16
68116;PMS7003;54909;54.464;18.498;2023-12-28T02:28:00;35;30;16
68116;PMS7003;54909;54.464;18.498;2023-12-28T02:31:02;29;27;15
68116;PMS7003;54909;54.464;18.498;2023-12-28T02:34:08;25;22;16
68116;PMS7003;54909;54.464;18.498;2023-12-28T02:37:18;34;31;16
68116;PMS7003;54909;54.464;18.498;2023-12-28T02:40:20;25;21;14
68116;PMS7003;54909;54.464;18.498;2023-12-28T02:43:22;35;28;16
68116;PMS7003;54909;54.464;18.498;2023-12-28T02:46:23;31;24;15
68116;PMS7003;54909;54.464;18.498;2023-12-28T02:49:25;29;25;15
68116;PMS7003;54909;54.464;18.498;2023-12-28T02:52:26;34;27;14
68116;PMS7003;54909;54.464;18.498;2023-12-28T02:55:31;34;30;15
68116;PMS7003;54909;54.464;18.498;2023-12-28T02:58:33;26;25;14
68116;PMS7003;54909;54.464;18.498;2023-12-28T03:01:34;31;24;16
68116;PMS7003;54909;54.464;18.498;2023-12-28T03:04:43;29;26;14
68116;PMS7003;54909;54.464;18.498;2023-12-28T03:07:44;36;27;15
68116;PMS7003;54909;54.464;18.498;2023-12-28T03:10:46;31;29;17
68116;PMS7003;54909;54.464;18.498;2023-12-28T03:13:56;37;33;18
68116;PMS7003;54909;54.464;18.498;2023-12-28T03:16:57;31;25;19
68116;PMS7003;54909;54.464;18.498;2023-12-28T03:19:58;32;29;20
68116;PMS7003;54909;54.464;18.498;2023-12-28T03:23:08;46;38;18
68116;PMS7003;54909;54.464;18.498;2023-12-28T03:26:09;52;37;22
68116;PMS7003;54909;54.464;18.498;2023-12-28T03:29:10;41;36;20
68116;PMS7003;54909;54.464;18.498;2023-12-28T03:32:11;41;35;20
68116;PMS7003;54909;54.464;18.498;2023-12-28T03:35:12;40;33;20
68116;PMS7003;54909;54.464;18.498;2023-12-28T03:38:13;42;33;20
68116;PMS7003;54909;54.464;18.498;2023-12-28T03:41:18;44;33;20
68116;PMS7003;54909;54.464;18.498;2023-12-28T03:44:19;35;32;22
68116;PMS7003;54909;54.464;18.498;2023-12-28T03:47:21;37;32;20
68116;PMS7003;54909;54.464;18.498;2023-12-28T03:50:24;38;31;21
68116;PMS7003;54909;54.464;18.498;2023-12-28T03:53:25;39;35;22
68116;PMS7003;54909;54.464;18.498;2023-12-28T03:56:34;38;28;20
68116;PMS7003;54909;54.464;18.498;2023-12-28T03:59:37;42;32;20
68116;PMS7003;54909;54.464;18.498;2023-12-28T04:02:39;49;37;19
68116;PMS7003;54909;54.464;18.498;2023-12-28T04:05:46;38;34;21
68116;PMS7003;54909;54.464;18.498;2023-12-28T04:08:47;46;37;23
68116;PMS7003;54909;54.464;18.498;2023-12-28T04:11:49;31;27;19
68116;PMS7003;54909;54.464;18.498;2023-12-28T04:14:56;43;35;20
68116;PMS7003;54909;54.464;18.498;2023-12-28T04:17:57;38;30;21
68116;PMS7003;54909;54.464;18.498;2023-12-28T04:20:58;38;32;20
68116;PMS7003;54909;54.464;18.498;2023-12-28T04:24:08;46;33;24
68116;PMS7003;54909;54.464;18.498;2023-12-28T04:27:09;38;34;23
68116;PMS7003;54909;54.464;18.498;2023-12-28T04:30:13;39;33;21
68116;PMS7003;54909;54.464;18.498;2023-12-28T04:33:21;37;30;20
68116;PMS7003;54909;54.464;18.498;2023-12-28T04:36:22;43;36;22
68116;PMS7003;54909;54.464;18.498;2023-12-28T04:39:23;42;33;22
68116;PMS7003;54909;54.464;18.498;2023-12-28T04:42:33;41;34;20
68116;PMS7003;54909;54.464;18.498;2023-12-28T04:45:34;38;31;21
68116;PMS7003;54909;54.464;18.498;2023-12-28T04:48:35;32;27;19
68116;PMS7003;54909;54.464;18.498;2023-12-28T04:51:44;39;34;20
68116;PMS7003;54909;54.464;18.498;2023-12-28T04:54:45;40;31;21
68116;PMS7003;54909;54.464;18.498;2023-12-28T04:57:46;36;28;19
68116;PMS7003;54909;54.464;18.498;2023-12-28T05:00:55;42;35;22
68116;PMS7003;54909;54.464;18.498;2023-12-28T05:03:56;36;32;18
68116;PMS7003;54909;54.464;18.498;2023-12-28T05:06:58;46;36;20
68116;PMS7003;54909;54.464;18.498;2023-12-28T05:10:07;37;31;17
68116;PMS7003;54909;54.464;18.498;2023-12-28T05:13:09;37;32;20
68116;PMS7003;54909;54.464;18.498;2023-12-28T05:16:10;34;28;17
68116;PMS7003;54909;54.464;18.498;2023-12-28T05:19:19;37;27;20
68116;PMS7003;54909;54.464;18.498;2023-12-28T05:22:21;34;25;19
68116;PMS7003;54909;54.464;18.498;2023-12-28T05:25:22;34;32;20
68116;PMS7003;54909;54.464;18.498;2023-12-28T05:28:31;30;26;19
68116;PMS7003;54909;54.464;18.498;2023-12-28T05:31:33;40;35;18
68116;PMS7003;54909;54.464;18.498;2023-12-28T05:34:34;30;25;19
68116;PMS7003;54909;54.464;18.498;2023-12-28T05:37:42;29;28;19
68116;PMS7003;54909;54.464;18.498;2023-12-28T05:40:43;32;26;17
68116;PMS7003;54909;54.464;18.498;2023-12-28T05:43:45;43;29;19
68116;PMS7003;54909;54.464;18.498;2023-12-28T05:46:54;33;29;23
68116;PMS7003;54909;54.464;18.498;2023-12-28T05:49:55;41;35;21
68116;PMS7003;54909;54.464;18.498;2023-12-28T05:52:56;45;35;19
68116;PMS7003;54909;54.464;18.498;2023-12-28T05:56:05;35;30;19
68116;PMS7003;54909;54.464;18.498;2023-12-28T05:59:07;41;34;19
68116;PMS7003;54909;54.464;18.498;2023-12-28T06:02:08;40;31;21
68116;PMS7003;54909;54.464;18.498;2023-12-28T06:05:17;35;31;19
68116;PMS7003;54909;54.464;18.498;2023-12-28T06:08:18;36;30;18
68116;PMS7003;54909;54.464;18.498;2023-12-28T06:11:19;36;33;22
68116;PMS7003;54909;54.464;18.498;2023-12-28T06:14:28;36;30;18
68116;PMS7003;54909;54.464;18.498;2023-12-28T06:17:30;42;34;20
68116;PMS7003;54909;54.464;18.498;2023-12-28T06:20:31;38;32;19
68116;PMS7003;54909;54.464;18.498;2023-12-28T06:23:32;38;32;20
68116;PMS7003;54909;54.464;18.498;2023-12-28T06:26:38;34;29;20
68116;PMS7003;54909;54.464;18.498;2023-12-28T06:29:40;33;30;20
68116;PMS7003;54909;54.464;18.498;2023-12-28T06:32:41;38;28;19
68116;PMS7003;54909;54.464;18.498;2023-12-28T06:35:42;35;31;20
68116;PMS7003;54909;54.464;18.498;2023-12-28T06:38:43;40;34;21
68116;PMS7003;54909;54.464;18.498;2023-12-28T06:41:48;42;34;19
68116;PMS7003;54909;54.464;18.498;2023-12-28T06:44:49;41;35;21
68116;PMS7003;54909;54.464;18.498;2023-12-28T06:47:51;40;34;22
68116;PMS7003;54909;54.464;18.498;2023-12-28T06:50:52;33;28;21
68116;PMS7003;54909;54.464;18.498;2023-12-28T06:53:53;52;39;23
68116;PMS7003;54909;54.464;18.498;2023-12-28T06:57:03;40;36;20
68116;PMS7003;54909;54.464;18.498;2023-12-28T07:00:05;38;30;20
68116;PMS7003;54909;54.464;18.498;2023-12-28T07:03:07;34;31;20
68116;PMS7003;54909;54.464;18.498;2023-12-28T07:06:13;36;28;20
68116;PMS7003;54909;54.464;18.498;2023-12-28T07:09:14;42;31;21
68116;PMS7003;54909;54.464;18.498;2023-12-28T07:12:16;37;32;22
68116;PMS7003;54909;54.464;18.498;2023-12-28T07:15:25;33;30;22
68116;PMS7003;54909;54.464;18.498;2023-12-28T07:18:26;36;30;20
68116;PMS7003;54909;54.464;18.498;2023-12-28T07:21:28;45;35;22
68116;PMS7003;54909;54.464;18.498;2023-12-28T07:24:37;33;28;19
68116;PMS7003;54909;54.464;18.498;2023-12-28T07:27:38;32;29;20
68116;PMS7003;54909;54.464;18.498;2023-12-28T07:30:40;39;34;20
68116;PMS7003;54909;54.464;18.498;2023-12-28T07:33:48;38;34;19
68116;PMS7003;54909;54.464;18.498;2023-12-28T07:36:49;38;33;21
68116;PMS7003;54909;54.464;18.498;2023-12-28T07:39:50;32;28;18
68116;PMS7003;54909;54.464;18.498;2023-12-28T07:42:52;36;32;20
68116;PMS7003;54909;54.464;18.498;2023-12-28T07:45:53;38;31;20
68116;PMS7003;54909;54.464;18.498;2023-12-28T07:48:55;31;28;21
68116;PMS7003;54909;54.464;18.498;2023-12-28T07:51:56;34;30;18
68116;PMS7003;54909;54.464;18.498;2023-12-28T07:54:58;36;33;19
68116;PMS7003;54909;54.464;18.498;2023-12-28T07:58:00;41;34;19
68116;PMS7003;54909;54.464;18.498;2023-12-28T08:01:08;37;32;21
68116;PMS7003;54909;54.464;18.498;2023-12-28T08:04:11;36;35;20
68116;PMS7003;54909;54.464;18.498;2023-12-28T08:07:13;38;34;21
68116;PMS7003;54909;54.464;18.498;2023-12-28T08:10:14;36;34;19
68116;PMS7003;54909;54.464;18.498;2023-12-28T08:13:16;32;27;18
68116;PMS7003;54909;54.464;18.498;2023-12-28T08:16:23;31;26;20
68116;PMS7003;54909;54.464;18.498;2023-12-28T08:19:24;33;30;21
68116;PMS7003;54909;54.464;18.498;2023-12-28T08:22:26;36;30;21
68116;PMS7003;54909;54.464;18.498;2023-12-28T08:25:35;35;28;17
68116;PMS7003;54909;54.464;18.498;2023-12-28T08:28:36;35;30;17
68116;PMS7003;54909;54.464;18.498;2023-12-28T08:31:37;33;28;16
68116;PMS7003;54909;54.464;18.498;2023-12-28T08:34:47;37;31;18
68116;PMS7003;54909;54.464;18.498;2023-12-28T08:37:49;32;29;19
68116;PMS7003;54909;54.464;18.498;2023-12-28T08:40:50;31;25;18
68116;PMS7003;54909;54.464;18.498;2023-12-28T08:43:57;29;26;18
68116;PMS7003;54909;54.464;18.498;2023-12-28T08:46:58;35;32;21
68116;PMS7003;54909;54.464;18.498;2023-12-28T08:49:59;28;26;17
68116;PMS7003;54909;54.464;18.498;2023-12-28T08:53:08;36;26;18
68116;PMS7003;54909;54.464;18.498;2023-12-28T08:56:27;29;27;19
68116;PMS7003;54909;54.464;18.498;2023-12-28T08:59:20;44;34;18
68116;PMS7003;54909;54.464;18.498;2023-12-28T09:02:22;36;32;18
68116;PMS7003;54909;54.464;18.498;2023-12-28T09:05:23;32;28;17
68116;PMS7003;54909;54.464;18.498;2023-12-28T09:08:24;30;25;17
68116;PMS7003;54909;54.464;18.498;2023-12-28T09:11:32;33;31;20
68116;PMS7003;54909;54.464;18.498;2023-12-28T09:14:33;34;33;19
68116;PMS7003;54909;54.464;18.498;2023-12-28T09:17:34;38;30;19
68116;PMS7003;54909;54.464;18.498;2023-12-28T09:20:45;34;27;20
68116;PMS7003;54909;54.464;18.498;2023-12-28T09:23:49;33;32;18
68116;PMS7003;54909;54.464;18.498;2023-12-28T09:26:50;33;29;19
68116;PMS7003;54909;54.464;18.498;2023-12-28T09:29:56;32;29;19
68116;PMS7003;54909;54.464;18.498;2023-12-28T09:32:57;34;31;20
68116;PMS7003;54909;54.464;18.498;2023-12-28T09:35:59;27;27;19
68116;PMS7003;54909;54.464;18.498;2023-12-28T09:39:09;35;28;21
68116;PMS7003;54909;54.464;18.498;2023-12-28T09:45:27;37;35;21
68116;PMS7003;54909;54.464;18.498;2023-12-28T09:48:28;32;30;21
68116;PMS7003;54909;54.464;18.498;2023-12-28T09:51:32;42;34;22
68116;PMS7003;54909;54.464;18.498;2023-12-28T09:54:34;37;32;21
68116;PMS7003;54909;54.464;18.498;2023-12-28T09:57:36;30;26;20
68116;PMS7003;54909;54.464;18.498;2023-12-28T10:00:38;38;31;19
68116;PMS7003;54909;54.464;18.498;2023-12-28T10:03:39;33;29;21
68116;PMS7003;54909;54.464;18.498;2023-12-28T10:06:45;28;27;19
68116;PMS7003;54909;54.464;18.498;2023-12-28T10:09:46;34;32;21
68116;PMS7003;54909;54.464;18.498;2023-12-28T10:12:48;33;28;19
68116;PMS7003;54909;54.464;18.498;2023-12-28T10:15:57;41;33;19
68116;PMS7003;54909;54.464;18.498;2023-12-28T10:18:59;33;32;21
68116;PMS7003;54909;54.464;18.498;2023-12-28T10:22:00;31;27;19
68116;PMS7003;54909;54.464;18.498;2023-12-28T10:25:10;34;29;20
68116;PMS7003;54909;54.464;18.498;2023-12-28T10:28:11;31;25;21
68116;PMS7003;54909;54.464;18.498;2023-12-28T10:31:14;27;25;19
68116;PMS7003;54909;54.464;18.498;2023-12-28T10:34:21;32;29;21
68116;PMS7003;54909;54.464;18.498;2023-12-28T10:37:26;29;25;18
68116;PMS7003;54909;54.464;18.498;2023-12-28T10:40:28;30;27;18
68116;PMS7003;54909;54.464;18.498;2023-12-28T10:46:47;31;26;17
68116;PMS7003;54909;54.464;18.498;2023-12-28T10:49:51;26;26;19
68116;PMS7003;54909;54.464;18.498;2023-12-28T10:52:56;31;29;19
68116;PMS7003;54909;54.464;18.498;2023-12-28T11:05:52;26;25;19
68116;PMS7003;54909;54.464;18.498;2023-12-28T11:09:00;25;25;19
68116;PMS7003;54909;54.464;18.498;2023-12-28T11:12:04;29;28;21
68116;PMS7003;54909;54.464;18.498;2023-12-28T11:15:10;32;24;19
68116;PMS7003;54909;54.464;18.498;2023-12-28T11:18:14;24;24;18
68116;PMS7003;54909;54.464;18.498;2023-12-28T11:21:16;28;26;18
68116;PMS7003;54909;54.464;18.498;2023-12-28T11:24:19;29;28;18
68116;PMS7003;54909;54.464;18.498;2023-12-28T11:27:23;33;26;17
68116;PMS7003;54909;54.464;18.498;2023-12-28T11:30:28;29;26;18
68116;PMS7003;54909;54.464;18.498;2023-12-28T11:33:32;23;20;16
68116;PMS7003;54909;54.464;18.498;2023-12-28T11:36:36;30;26;17
68116;PMS7003;54909;54.464;18.498;2023-12-28T11:39:44;27;25;18
68116;PMS7003;54909;54.464;18.498;2023-12-28T11:43:03;33;28;18
68116;PMS7003;54909;54.464;18.498;2023-12-28T11:45:56;26;25;17
68116;PMS7003;54909;54.464;18.498;2023-12-28T11:52:06;28;24;16
68116;PMS7003;54909;54.464;18.498;2023-12-28T11:55:08;21;21;15
68116;PMS7003;54909;54.464;18.498;2023-12-28T11:58:09;25;24;16
68116;PMS7003;54909;54.464;18.498;2023-12-28T12:01:10;20;18;14
68116;PMS7003;54909;54.464;18.498;2023-12-28T12:04:12;18;18;15
68116;PMS7003;54909;54.464;18.498;2023-12-28T12:07:13;22;19;14
68116;PMS7003;54909;54.464;18.498;2023-12-28T12:10:14;17;17;15
68116;PMS7003;54909;54.464;18.498;2023-12-28T12:13:22;22;18;14
68116;PMS7003;54909;54.464;18.498;2023-12-28T12:16:23;17;16;13
68116;PMS7003;54909;54.464;18.498;2023-12-28T12:19:24;22;16;14
68116;PMS7003;54909;54.464;18.498;2023-12-28T12:22:32;20;16;13
68116;PMS7003;54909;54.464;18.498;2023-12-28T12:25:33;19;18;14
68116;PMS7003;54909;54.464;18.498;2023-12-28T12:28:34;15;14;12
68116;PMS7003;54909;54.464;18.498;2023-12-28T12:31:42;22;20;12
68116;PMS7003;54909;54.464;18.498;2023-12-28T12:34:46;16;15;11
68116;PMS7003;54909;54.464;18.498;2023-12-28T12:37:48;18;15;11
68116;PMS7003;54909;54.464;18.498;2023-12-28T12:40:53;16;15;13
68116;PMS7003;54909;54.464;18.498;2023-12-28T12:43:54;16;15;12
68116;PMS7003;54909;54.464;18.498;2023-12-28T12:46:59;12;12;10
68116;PMS7003;54909;54.464;18.498;2023-12-28T12:50:03;16;14;10
68116;PMS7003;54909;54.464;18.498;2023-12-28T12:53:05;14;13;10
68116;PMS7003;54909;54.464;18.498;2023-12-28T12:56:06;14;13;11
68116;PMS7003;54909;54.464;18.498;2023-12-28T12:59:12;15;13;11
68116;PMS7003;54909;54.464;18.498;2023-12-28T13:02:21;12;12;10
68116;PMS7003;54909;54.464;18.498;2023-12-28T13:05:27;13;13;10
68116;PMS7003;54909;54.464;18.498;2023-12-28T13:08:29;11;10;10
68116;PMS7003;54909;54.464;18.498;2023-12-28T13:11:30;11;11;10
68116;PMS7003;54909;54.464;18.498;2023-12-28T13:14:33;13;12;10
68116;PMS7003;54909;54.464;18.498;2023-12-28T13:17:35;13;13;10
68116;PMS7003;54909;54.464;18.498;2023-12-28T13:20:37;12;12;10
68116;PMS7003;54909;54.464;18.498;2023-12-28T13:23:38;15;13;10
68116;PMS7003;54909;54.464;18.498;2023-12-28T13:26:42;14;13;10
68116;PMS7003;54909;54.464;18.498;2023-12-28T13:29:43;17;15;10
68116;PMS7003;54909;54.464;18.498;2023-12-28T13:32:44;16;14;10
68116;PMS7003;54909;54.464;18.498;2023-12-28T13:35:52;13;13;10
68116;PMS7003;54909;54.464;18.498;2023-12-28T13:38:53;13;12;10
68116;PMS7003;54909;54.464;18.498;2023-12-28T13:41:55;15;14;11
68116;PMS7003;54909;54.464;18.498;2023-12-28T13:45:02;16;12;10
68116;PMS7003;54909;54.464;18.498;2023-12-28T13:48:04;15;13;10
68116;PMS7003;54909;54.464;18.498;2023-12-28T13:51:06;14;11;9
68116;PMS7003;54909;54.464;18.498;2023-12-28T13:54:12;11;11;9
68116;PMS7003;54909;54.464;18.498;2023-12-28T13:57:13;11;11;9
68116;PMS7003;54909;54.464;18.498;2023-12-28T14:00:15;14;13;10
68116;PMS7003;54909;54.464;18.498;2023-12-28T14:03:22;14;12;10
68116;PMS7003;54909;54.464;18.498;2023-12-28T14:06:23;15;11;10
68116;PMS7003;54909;54.464;18.498;2023-12-28T14:09:25;13;13;10
68116;PMS7003;54909;54.464;18.498;2023-12-28T14:12:32;16;14;10
68116;PMS7003;54909;54.464;18.498;2023-12-28T14:15:33;13;12;9
68116;PMS7003;54909;54.464;18.498;2023-12-28T14:18:34;15;13;10
68116;PMS7003;54909;54.464;18.498;2023-12-28T14:21:43;17;15;12
68116;PMS7003;54909;54.464;18.498;2023-12-28T14:24:45;18;16;11
68116;PMS7003;54909;54.464;18.498;2023-12-28T14:27:47;15;14;12
68116;PMS7003;54909;54.464;18.498;2023-12-28T14:30:54;14;14;12
68116;PMS7003;54909;54.464;18.498;2023-12-28T14:33:56;16;13;9
68116;PMS7003;54909;54.464;18.498;2023-12-28T14:36:57;11;10;9
68116;PMS7003;54909;54.464;18.498;2023-12-28T14:40:04;13;13;10
68116;PMS7003;54909;54.464;18.498;2023-12-28T14:43:06;13;13;10
68116;PMS7003;54909;54.464;18.498;2023-12-28T14:46:07;15;14;11
68116;PMS7003;54909;54.464;18.498;2023-12-28T14:49:14;12;12;9
68116;PMS7003;54909;54.464;18.498;2023-12-28T14:52:15;16;15;10
68116;PMS7003;54909;54.464;18.498;2023-12-28T14:55:16;16;14;13
68116;PMS7003;54909;54.464;18.498;2023-12-28T14:58:24;16;12;10
68116;PMS7003;54909;54.464;18.498;2023-12-28T15:01:26;14;12;9
68116;PMS7003;54909;54.464;18.498;2023-12-28T15:04:27;14;12;8
68116;PMS7003;54909;54.464;18.498;2023-12-28T15:07:34;15;14;11
68116;PMS7003;54909;54.464;18.498;2023-12-28T15:10:35;16;13;10
68116;PMS7003;54909;54.464;18.498;2023-12-28T15:13:37;11;11;8
68116;PMS7003;54909;54.464;18.498;2023-12-28T15:16:45;14;12;9
68116;PMS7003;54909;54.464;18.498;2023-12-28T15:19:46;13;11;9
68116;PMS7003;54909;54.464;18.498;2023-12-28T15:22:48;13;12;10
68116;PMS7003;54909;54.464;18.498;2023-12-28T15:25:54;15;13;12
68116;PMS7003;54909;54.464;18.498;2023-12-28T15:28:55;17;15;11
68116;PMS7003;54909;54.464;18.498;2023-12-28T15:31:56;15;14;12
68116;PMS7003;54909;54.464;18.498;2023-12-28T15:35:04;18;17;12
68116;PMS7003;54909;54.464;18.498;2023-12-28T15:38:06;14;13;10
68116;PMS7003;54909;54.464;18.498;2023-12-28T15:41:08;17;16;12
68116;PMS7003;54909;54.464;18.498;2023-12-28T15:44:15;15;14;11
68116;PMS7003;54909;54.464;18.498;2023-12-28T15:47:16;19;16;13
68116;PMS7003;54909;54.464;18.498;2023-12-28T15:50:20;16;14;12
68116;PMS7003;54909;54.464;18.498;2023-12-28T15:53:25;23;16;13
68116;PMS7003;54909;54.464;18.498;2023-12-28T15:56:27;18;17;14
68116;PMS7003;54909;54.464;18.498;2023-12-28T15:59:28;19;16;13
68116;PMS7003;54909;54.464;18.498;2023-12-28T16:02:36;16;15;11
68116;PMS7003;54909;54.464;18.498;2023-12-28T16:05:37;21;16;13
68116;PMS7003;54909;54.464;18.498;2023-12-28T16:08:38;14;14;12
68116;PMS7003;54909;54.464;18.498;2023-12-28T16:11:47;17;15;13
68116;PMS7003;54909;54.464;18.498;2023-12-28T16:14:48;17;14;12
68116;PMS7003;54909;54.464;18.498;2023-12-28T16:17:50;17;15;12
68116;PMS7003;54909;54.464;18.498;2023-12-28T16:20:59;17;17;14
68116;PMS7003;54909;54.464;18.498;2023-12-28T16:24:00;19;16;13
68116;PMS7003;54909;54.464;18.498;2023-12-28T16:27:02;19;17;12
68116;PMS7003;54909;54.464;18.498;2023-12-28T16:30:10;14;14;12
68116;PMS7003;54909;54.464;18.498;2023-12-28T16:33:11;14;13;10
68116;PMS7003;54909;54.464;18.498;2023-12-28T16:36:12;16;12;11
68116;PMS7003;54909;54.464;18.498;2023-12-28T16:39:20;13;12;11
68116;PMS7003;54909;54.464;18.498;2023-12-28T16:42:21;15;14;11
68116;PMS7003;54909;54.464;18.498;2023-12-28T16:45:23;13;11;8
68116;PMS7003;54909;54.464;18.498;2023-12-28T16:48:30;11;11;8
68116;PMS7003;54909;54.464;18.498;2023-12-28T16:51:32;18;15;10
68116;PMS7003;54909;54.464;18.498;2023-12-28T16:54:33;16;12;8
68116;PMS7003;54909;54.464;18.498;2023-12-28T16:57:43;15;12;8
68116;PMS7003;54909;54.464;18.498;2023-12-28T17:00:44;9;9;8
68116;PMS7003;54909;54.464;18.498;2023-12-28T17:03:45;9;9;8
68116;PMS7003;54909;54.464;18.498;2023-12-28T17:06:49;15;12;8
68116;PMS7003;54909;54.464;18.498;2023-12-28T17:09:50;14;12;9
68116;PMS7003;54909;54.464;18.498;2023-12-28T17:12:51;10;9;7
68116;PMS7003;54909;54.464;18.498;2023-12-28T17:15:59;14;11;8
68116;PMS7003;54909;54.464;18.498;2023-12-28T17:19:00;15;10;8
68116;PMS7003;54909;54.464;18.498;2023-12-28T17:22:03;12;10;8
68116;PMS7003;54909;54.464;18.498;2023-12-28T17:28:20;11;10;8
68116;PMS7003;54909;54.464;18.498;2023-12-28T17:31:25;12;11;8
68116;PMS7003;54909;54.464;18.498;2023-12-28T17:34:29;11;9;7
68116;PMS7003;54909;54.464;18.498;2023-12-28T17:37:31;10;9;8
68116;PMS7003;54909;54.464;18.498;2023-12-28T17:40:32;8;8;8
68116;PMS7003;54909;54.464;18.498;2023-12-28T17:50:06;13;11;9
68116;PMS7003;54909;54.464;18.498;2023-12-28T17:53:11;13;10;8
68116;PMS7003;54909;54.464;18.498;2023-12-28T17:56:13;9;9;8
68116;PMS7003;54909;54.464;18.498;2023-12-28T17:59:18;11;9;7
68116;PMS7003;54909;54.464;18.498;2023-12-28T18:02:19;11;8;7
68116;PMS7003;54909;54.464;18.498;2023-12-28T18:05:20;9;9;7
68116;PMS7003;54909;54.464;18.498;2023-12-28T18:08:21;14;10;8
68116;PMS7003;54909;54.464;18.498;2023-12-28T18:11:23;11;9;6
68116;PMS7003;54909;54.464;18.498;2023-12-28T18:14:24;11;10;8
68116;PMS7003;54909;54.464;18.498;2023-12-28T18:17:25;14;14;9
68116;PMS7003;54909;54.464;18.498;2023-12-28T18:20:26;17;15;12
68116;PMS7003;54909;54.464;18.498;2023-12-28T18:23:36;11;10;8
68116;PMS7003;54909;54.464;18.498;2023-12-28T18:26:38;14;10;8
68116;PMS7003;54909;54.464;18.498;2023-12-28T18:29:42;11;11;9
68116;PMS7003;54909;54.464;18.498;2023-12-28T18:33:29;11;10;7
68116;PMS7003;54909;54.464;18.498;2023-12-28T18:36:30;11;9;8
68116;PMS7003;54909;54.464;18.498;2023-12-28T18:39:39;11;8;7
68116;PMS7003;54909;54.464;18.498;2023-12-28T18:42:40;13;13;9
68116;PMS7003;54909;54.464;18.498;2023-12-28T18:45:42;15;12;9
68116;PMS7003;54909;54.464;18.498;2023-12-28T18:48:48;11;9;8
68116;PMS7003;54909;54.464;18.498;2023-12-28T18:51:49;11;10;8
68116;PMS7003;54909;54.464;18.498;2023-12-28T18:54:51;12;10;8
68116;PMS7003;54909;54.464;18.498;2023-12-28T18:57:57;9;9;8
68116;PMS7003;54909;54.464;18.498;2023-12-28T19:00:58;13;13;9
68116;PMS7003;54909;54.464;18.498;2023-12-28T19:04:00;11;10;8
68116;PMS7003;54909;54.464;18.498;2023-12-28T19:07:07;12;10;8
68116;PMS7003;54909;54.464;18.498;2023-12-28T19:10:09;10;10;8
68116;PMS7003;54909;54.464;18.498;2023-12-28T19:13:12;14;11;8
68116;PMS7003;54909;54.464;18.498;2023-12-28T19:16:17;10;10;9
68116;PMS7003;54909;54.464;18.498;2023-12-28T19:19:19;14;9;8
68116;PMS7003;54909;54.464;18.498;2023-12-28T19:22:21;15;13;8
68116;PMS7003;54909;54.464;18.498;2023-12-28T19:25:27;8;8;7
68116;PMS7003;54909;54.464;18.498;2023-12-28T19:28:31;15;10;8
68116;PMS7003;54909;54.464;18.498;2023-12-28T19:31:32;9;9;8
68116;PMS7003;54909;54.464;18.498;2023-12-28T19:34:37;8;8;7
68116;PMS7003;54909;54.464;18.498;2023-12-28T19:37:38;12;9;8
68116;PMS7003;54909;54.464;18.498;2023-12-28T19:40:39;9;9;8
68116;PMS7003;54909;54.464;18.498;2023-12-28T19:43:47;11;10;7
68116;PMS7003;54909;54.464;18.498;2023-12-28T19:46:51;9;9;7
68116;PMS7003;54909;54.464;18.498;2023-12-28T19:49:52;10;9;8
68116;PMS7003;54909;54.464;18.498;2023-12-28T19:52:56;8;8;6
68116;PMS7003;54909;54.464;18.498;2023-12-28T19:55:57;11;10;8